Terminal Aerodrome Forecast
Issued by NWS

Home | Current Version | Previous Version | Text Only | Print | Product List | Glossary On
Versions: 1 2 3 4 5 6 7 8 9 10 11 12 13 14 15 16 17
000
FTUS46 KMTR 010500
TAFMRY
TAF
KMRY 010520Z 0106/0206 24004KT P6SM SKC
     FM010700 24004KT P6SM SCT005
      TEMPO 0108/0112 BKN005
     FM011200 VRB03KT P6SM BKN005
     FM011700 29007KT P6SM SKC
     FM020400 24004KT P6SM FEW009=

USA.gov is the U.S. government's official web portal to all federal, state and local government web resources and services.